Zapolyarye — UBEF5 — position and weather

sailwx.info

Track history (hours):
 
Tides and Currents Weather Stations Pressure Air Temp Water Temp Dewpoint Dewpoint Depression Visibility Wind Speed Wind Dir Waves Ship Positions

Zapolyarye

Last reported at 2014-Oct-19 06:00 UTC. Time now 2014-Oct-25 00:47 UTC.
Position N 71°18' E 029°30'.

Length 181 m; draft 5.9 m.

Type: Cargo ship. MMSI: 273338310.

Wind from 100 at 10 knots

Waves 1.0 meters (3 feet), 1 second period

Barometer 1012.2 mb
Air temperature 4.0 ° C
Visibility: greater than 10.8 NM
Water temperature 8.0 ° C

Date/timePositionNaut miles runAvg speedWind from/ knotsBaromVisibWave heightAir tempDewpointWater temp
2014-Oct-19 06:00N 71°18' E 029°30'57613.7 100 / 101012.210.8 1.0 4.0 8.0
2014-Oct-17 12:00N 66°00' E 007°30'26814.9 110 / 161016.810.8 0.5 8.0 10.0
2014-Oct-16 18:00N 61°48' E 004°06'44414.8 180 / 121010.210.8 1.011.0 12.0
2014-Oct-15 12:00N 54°24' E 004°36'4912.9 010 / 161005.510.8 1.014.0 17.0
2014-Oct-15 08:13N 53°36' E 004°49'1114.6
2014-Oct-15 07:29N 53°26' E 004°42'2315.3
2014-Oct-15 06:00N 53°06' E 004°24'7713.3 030 / 61011.5 5.4 1.015.0 17.0
2014-Oct-15 00:12N 51°58' E 003°23'812.9
2014-Oct-14 23:33N 51°50' E 003°19'1212.0
2014-Oct-14 22:33N 51°38' E 003°21'1414.4
2014-Oct-14 21:33N 51°27' E 003°34'1211.6
2014-Oct-14 20:33N 51°20' E 003°49'1 1.1
2014-Oct-14 19:29N 51°19' E 003°50'0 0.0
2014-Oct-14 18:32N 51°19' E 003°50'0 0.0
2014-Oct-14 17:32N 51°19' E 003°50'0 0.0
2014-Oct-14 16:32N 51°19' E 003°50'0 0.0
2014-Oct-14 15:33N 51°19' E 003°50'0 0.0
2014-Oct-14 14:32N 51°19' E 003°50'0 0.0
2014-Oct-14 13:29N 51°19' E 003°50'0 0.0
2014-Oct-14 12:29N 51°19' E 003°50'0 0.0
2014-Oct-14 11:32N 51°19' E 003°50'0 0.0
2014-Oct-14 10:32N 51°19' E 003°50'0 0.0
2014-Oct-14 09:31N 51°19' E 003°50'0 0.0
2014-Oct-14 08:29N 51°19' E 003°50'0 0.0
2014-Oct-14 07:31N 51°19' E 003°50'0 0.0
2014-Oct-14 06:31N 51°19' E 003°50'0 0.0
2014-Oct-14 05:31N 51°19' E 003°50'0 0.0
2014-Oct-14 04:28N 51°19' E 003°50'0 0.0
2014-Oct-14 03:30N 51°19' E 003°50'0 0.0
2014-Oct-14 02:33N 51°19' E 003°50'0 0.0
2014-Oct-14 01:33N 51°19' E 003°50'0 0.0
2014-Oct-14 00:30N 51°19' E 003°50'0 0.0
2014-Oct-13 23:33N 51°19' E 003°50'0 0.0
2014-Oct-13 22:24N 51°19' E 003°50'0 0.0
2014-Oct-13 21:30N 51°19' E 003°50'0 0.0
2014-Oct-13 20:27N 51°19' E 003°50'0 0.0
2014-Oct-13 19:33N 51°19' E 003°50'0 0.0
2014-Oct-13 18:33N 51°19' E 003°50'0 0.0
2014-Oct-13 17:33N 51°19' E 003°50'0 0.0
2014-Oct-13 16:33N 51°19' E 003°50'0 0.0
2014-Oct-13 15:33N 51°19' E 003°50'0 0.0
2014-Oct-13 14:33N 51°19' E 003°50'0 0.0
2014-Oct-13 13:30N 51°19' E 003°50'0 0.0
2014-Oct-13 12:30N 51°19' E 003°50'0 0.0
2014-Oct-13 11:24N 51°19' E 003°50'0 0.0
2014-Oct-13 10:33N 51°19' E 003°50'0 0.0
2014-Oct-13 09:33N 51°19' E 003°50'0 0.0
2014-Oct-13 08:33N 51°19' E 003°50'0 0.0
2014-Oct-13 07:33N 51°19' E 003°50'0 0.0
2014-Oct-13 06:33N 51°19' E 003°50'0 0.0
2014-Oct-13 05:33N 51°19' E 003°50'0 0.0
2014-Oct-13 04:33N 51°19' E 003°50'0 0.0
2014-Oct-13 03:31N 51°19' E 003°50'0 0.1
2014-Oct-13 02:33N 51°19' E 003°50'1 1.4
2014-Oct-13 01:34N 51°20' E 003°49'8 7.7
2014-Oct-13 00:33N 51°26' E 003°41'1211.4
2014-Oct-12 23:32N 51°24' E 003°22'1312.2
2014-Oct-12 22:27N 51°24' E 003°01'1010.9
2014-Oct-12 21:33N 51°22' E 002°46'6 5.7
2014-Oct-12 20:31N 51°26' E 002°39'0 0.0
2014-Oct-12 19:25N 51°26' E 002°39'0 0.0
2014-Oct-12 18:31N 51°26' E 002°39'0 0.2
2014-Oct-12 17:31N 51°26' E 002°39'0 0.0
2014-Oct-12 16:25N 51°26' E 002°39'0 0.0
2014-Oct-12 15:31N 51°26' E 002°39'0 0.1
2014-Oct-12 14:33N 51°26' E 002°39'0 0.2
2014-Oct-12 13:27N 51°26' E 002°39'0 0.0
2014-Oct-12 11:19N 51°26' E 002°39'0 0.0
2014-Oct-12 10:31N 51°26' E 002°39'0 0.0
2014-Oct-12 09:31N 51°26' E 002°39'0 0.1
2014-Oct-12 08:31N 51°26' E 002°39'0 0.0
2014-Oct-12 07:28N 51°26' E 002°39'0 0.1
2014-Oct-12 06:31N 51°26' E 002°39'0 0.1
2014-Oct-12 05:31N 51°26' E 002°39'0 0.0
2014-Oct-12 04:31N 51°26' E 002°39'0 0.0
2014-Oct-12 03:31N 51°26' E 002°39'0 0.0
2014-Oct-12 02:25N 51°26' E 002°39'0 0.1
2014-Oct-12 01:31N 51°26' E 002°39'0 0.1
2014-Oct-12 00:27N 51°26' E 002°39'0 0.1
2014-Oct-11 23:34N 51°26' E 002°39'0 0.0
2014-Oct-11 22:31N 51°26' E 002°39'0 0.0
2014-Oct-11 21:28N 51°26' E 002°39'0 0.0
2014-Oct-11 20:33N 51°26' E 002°39'0 0.2
2014-Oct-11 19:33N 51°26' E 002°39'0 0.0
2014-Oct-11 18:33N 51°26' E 002°39'0 0.0
2014-Oct-11 17:33N 51°26' E 002°39'0 0.0
2014-Oct-11 16:33N 51°26' E 002°39'0 0.0
2014-Oct-11 15:34N 51°26' E 002°39'6 5.9
2014-Oct-11 14:33N 51°32' E 002°42'9110.6
2014-Oct-11 06:00N 53°00' E 003°18'175 9.7 200 / 121011.510.8 1.516.0 14.0
2014-Oct-10 12:00N 55°54' E 003°54'168 9.3 210 / 251007.510.8 2.513.0 12.0
2014-Oct-09 18:00N 58°42' E 004°00'6010.0 190 / 23992.9 5.4 3.012.0 12.0
2014-Oct-09 12:00N 59°42' E 004°00'24 4.1 160 / 25987.5 5.4 2.012.0 12.0
2014-Oct-09 06:12N 60°06' E 004°00'   060 / 23991.5 5.4 3.012.0 12.0
Track history (hours):
 
Tides and Currents Weather Stations Pressure Air Temp Water Temp Dewpoint Dewpoint Depression Visibility Wind Speed Wind Dir Waves Ship Positions

Zapolyarye

Last reported at 2014-Oct-19 06:00 UTC. Time now 2014-Oct-25 00:47 UTC.
Position N 71°18' E 029°30'.

Length 181 m; draft 5.9 m.

Type: Cargo ship. MMSI: 273338310.

Wind from 100 at 10 knots

Waves 1.0 meters (3 feet), 1 second period

Barometer 1012.2 mb
Air temperature 4.0 ° C
Visibility: greater than 10.8 NM
Water temperature 8.0 ° C

Date/timePositionNaut miles runAvg speedWind from/ knotsBaromVisibWave heightAir tempDewpointWater temp
2014-Oct-19 06:00N 71°18' E 029°30'57613.7 100 / 101012.210.8 1.0 4.0 8.0
2014-Oct-17 12:00N 66°00' E 007°30'26814.9 110 / 161016.810.8 0.5 8.0 10.0
2014-Oct-16 18:00N 61°48' E 004°06'44414.8 180 / 121010.210.8 1.011.0 12.0
2014-Oct-15 12:00N 54°24' E 004°36'4912.9 010 / 161005.510.8 1.014.0 17.0
2014-Oct-15 08:13N 53°36' E 004°49'1114.6
2014-Oct-15 07:29N 53°26' E 004°42'2315.3
2014-Oct-15 06:00N 53°06' E 004°24'7713.3 030 / 61011.5 5.4 1.015.0 17.0
2014-Oct-15 00:12N 51°58' E 003°23'812.9
2014-Oct-14 23:33N 51°50' E 003°19'1212.0
2014-Oct-14 22:33N 51°38' E 003°21'1414.4
2014-Oct-14 21:33N 51°27' E 003°34'1211.6
2014-Oct-14 20:33N 51°20' E 003°49'1 1.1
2014-Oct-14 19:29N 51°19' E 003°50'0 0.0
2014-Oct-14 18:32N 51°19' E 003°50'0 0.0
2014-Oct-14 17:32N 51°19' E 003°50'0 0.0
2014-Oct-14 16:32N 51°19' E 003°50'0 0.0
2014-Oct-14 15:33N 51°19' E 003°50'0 0.0
2014-Oct-14 14:32N 51°19' E 003°50'0 0.0
2014-Oct-14 13:29N 51°19' E 003°50'0 0.0
2014-Oct-14 12:29N 51°19' E 003°50'0 0.0
2014-Oct-14 11:32N 51°19' E 003°50'0 0.0
2014-Oct-14 10:32N 51°19' E 003°50'0 0.0
2014-Oct-14 09:31N 51°19' E 003°50'0 0.0
2014-Oct-14 08:29N 51°19' E 003°50'0 0.0
2014-Oct-14 07:31N 51°19' E 003°50'0 0.0
2014-Oct-14 06:31N 51°19' E 003°50'0 0.0
2014-Oct-14 05:31N 51°19' E 003°50'0 0.0
2014-Oct-14 04:28N 51°19' E 003°50'0 0.0
2014-Oct-14 03:30N 51°19' E 003°50'0 0.0
2014-Oct-14 02:33N 51°19' E 003°50'0 0.0
2014-Oct-14 01:33N 51°19' E 003°50'0 0.0
2014-Oct-14 00:30N 51°19' E 003°50'0 0.0
2014-Oct-13 23:33N 51°19' E 003°50'0 0.0
2014-Oct-13 22:24N 51°19' E 003°50'0 0.0
2014-Oct-13 21:30N 51°19' E 003°50'0 0.0
2014-Oct-13 20:27N 51°19' E 003°50'0 0.0
2014-Oct-13 19:33N 51°19' E 003°50'0 0.0
2014-Oct-13 18:33N 51°19' E 003°50'0 0.0
2014-Oct-13 17:33N 51°19' E 003°50'0 0.0
2014-Oct-13 16:33N 51°19' E 003°50'0 0.0
2014-Oct-13 15:33N 51°19' E 003°50'0 0.0
2014-Oct-13 14:33N 51°19' E 003°50'0 0.0
2014-Oct-13 13:30N 51°19' E 003°50'0 0.0
2014-Oct-13 12:30N 51°19' E 003°50'0 0.0
2014-Oct-13 11:24N 51°19' E 003°50'0 0.0
2014-Oct-13 10:33N 51°19' E 003°50'0 0.0
2014-Oct-13 09:33N 51°19' E 003°50'0 0.0
2014-Oct-13 08:33N 51°19' E 003°50'0 0.0
2014-Oct-13 07:33N 51°19' E 003°50'0 0.0
2014-Oct-13 06:33N 51°19' E 003°50'0 0.0
2014-Oct-13 05:33N 51°19' E 003°50'0 0.0
2014-Oct-13 04:33N 51°19' E 003°50'0 0.0
2014-Oct-13 03:31N 51°19' E 003°50'0 0.1
2014-Oct-13 02:33N 51°19' E 003°50'1 1.4
2014-Oct-13 01:34N 51°20' E 003°49'8 7.7
2014-Oct-13 00:33N 51°26' E 003°41'1211.4
2014-Oct-12 23:32N 51°24' E 003°22'1312.2
2014-Oct-12 22:27N 51°24' E 003°01'1010.9
2014-Oct-12 21:33N 51°22' E 002°46'6 5.7
2014-Oct-12 20:31N 51°26' E 002°39'0 0.0
2014-Oct-12 19:25N 51°26' E 002°39'0 0.0
2014-Oct-12 18:31N 51°26' E 002°39'0 0.2
2014-Oct-12 17:31N 51°26' E 002°39'0 0.0
2014-Oct-12 16:25N 51°26' E 002°39'0 0.0
2014-Oct-12 15:31N 51°26' E 002°39'0 0.1
2014-Oct-12 14:33N 51°26' E 002°39'0 0.2
2014-Oct-12 13:27N 51°26' E 002°39'0 0.0
2014-Oct-12 11:19N 51°26' E 002°39'0 0.0
2014-Oct-12 10:31N 51°26' E 002°39'0 0.0
2014-Oct-12 09:31N 51°26' E 002°39'0 0.1
2014-Oct-12 08:31N 51°26' E 002°39'0 0.0
2014-Oct-12 07:28N 51°26' E 002°39'0 0.1
2014-Oct-12 06:31N 51°26' E 002°39'0 0.1
2014-Oct-12 05:31N 51°26' E 002°39'0 0.0
2014-Oct-12 04:31N 51°26' E 002°39'0 0.0
2014-Oct-12 03:31N 51°26' E 002°39'0 0.0
2014-Oct-12 02:25N 51°26' E 002°39'0 0.1
2014-Oct-12 01:31N 51°26' E 002°39'0 0.1
2014-Oct-12 00:27N 51°26' E 002°39'0 0.1
2014-Oct-11 23:34N 51°26' E 002°39'0 0.0
2014-Oct-11 22:31N 51°26' E 002°39'0 0.0
2014-Oct-11 21:28N 51°26' E 002°39'0 0.0
2014-Oct-11 20:33N 51°26' E 002°39'0 0.2
2014-Oct-11 19:33N 51°26' E 002°39'0 0.0
2014-Oct-11 18:33N 51°26' E 002°39'0 0.0
2014-Oct-11 17:33N 51°26' E 002°39'0 0.0
2014-Oct-11 16:33N 51°26' E 002°39'0 0.0
2014-Oct-11 15:34N 51°26' E 002°39'6 5.9
2014-Oct-11 14:33N 51°32' E 002°42'9110.6
2014-Oct-11 06:00N 53°00' E 003°18'175 9.7 200 / 121011.510.8 1.516.0 14.0
2014-Oct-10 12:00N 55°54' E 003°54'168 9.3 210 / 251007.510.8 2.513.0 12.0
2014-Oct-09 18:00N 58°42' E 004°00'6010.0 190 / 23992.9 5.4 3.012.0 12.0
2014-Oct-09 12:00N 59°42' E 004°00'24 4.1 160 / 25987.5 5.4 2.012.0 12.0
2014-Oct-09 06:12N 60°06' E 004°00'   060 / 23991.5 5.4 3.012.0 12.0

Dump ship's entire track history